Time;durP1;ratioP1;P1;durP2;ratioP2;P2;SDS_P1;SDS_P2;PMS_P1;PMS_P2;Temp;Humidity;BMP_temperature;BMP_pressure;BME280_temperature;BME280_humidity;BME280_pressure;Samples;Min_cycle;Max_cycle;Signal;HPM_P1;HPM_P2
2024/01/21 00:00:25;;;;;;;12.50;10.20;;;1.60;1.00;;;;;;5082152;28;20180;-75
2024/01/21 00:02:51;;;;;;;12.80;9.30;;;1.60;1.00;;;;;;5072343;28;20485;-77
2024/01/21 00:05:17;;;;;;;12.00;9.10;;;1.60;1.00;;;;;;5074330;28;20254;-77
2024/01/21 00:07:42;;;;;;;10.80;8.27;;;1.60;1.00;;;;;;5074540;28;20641;-77
2024/01/21 00:10:09;;;;;;;12.47;9.50;;;1.60;1.00;;;;;;5074465;28;20170;-77
2024/01/21 00:12:35;;;;;;;11.60;9.10;;;1.60;1.00;;;;;;5074376;28;20165;-75
2024/01/21 00:15:02;;;;;;;17.70;9.97;;;1.60;1.00;;;;;;5073365;28;20446;-77
2024/01/21 00:17:27;;;;;;;13.07;9.63;;;1.60;1.00;;;;;;5076372;28;20959;-75
2024/01/21 00:19:53;;;;;;;15.53;9.60;;;1.60;1.00;;;;;;5079869;28;20538;-77
2024/01/21 00:22:19;;;;;;;10.20;8.00;;;1.60;1.00;;;;;;5074291;28;20166;-77
2024/01/21 00:24:44;;;;;;;11.17;8.60;;;1.60;1.00;;;;;;5073111;28;20186;-78
2024/01/21 00:27:10;;;;;;;12.53;9.80;;;1.60;1.00;;;;;;5074115;28;20166;-77
2024/01/21 00:29:36;;;;;;;10.87;8.27;;;1.60;1.00;;;;;;5056381;28;20584;-77
2024/01/21 00:32:01;;;;;;;12.33;9.23;;;1.60;1.00;;;;;;5074054;28;20170;-75
2024/01/21 00:34:27;;;;;;;11.07;8.47;;;1.60;1.00;;;;;;5073153;28;20189;-75
2024/01/21 00:36:53;;;;;;;19.60;8.73;;;1.60;1.00;;;;;;5076826;28;20212;-75
2024/01/21 00:39:18;;;;;;;10.17;8.13;;;1.60;1.00;;;;;;5073710;28;20200;-78
2024/01/21 00:41:44;;;;;;;9.20;8.10;;;1.60;1.00;;;;;;5056130;28;20162;-75
2024/01/21 00:44:10;;;;;;;7.93;6.37;;;1.60;1.00;;;;;;5072883;28;20261;-75
2024/01/21 00:46:38;;;;;;;9.57;6.87;;;1.50;1.00;;;;;;5073792;28;20549;-77
2024/01/21 00:49:04;;;;;;;8.13;6.83;;;1.50;1.00;;;;;;5072879;28;20170;-75
2024/01/21 00:51:30;;;;;;;7.50;6.70;;;1.50;1.00;;;;;;5076212;28;20434;-76
2024/01/21 00:53:56;;;;;;;8.00;6.30;;;1.50;1.00;;;;;;5072574;28;20766;-78
2024/01/21 00:56:22;;;;;;;6.70;6.00;;;1.60;1.00;;;;;;5073662;28;20170;-75
2024/01/21 00:58:47;;;;;;;10.40;6.40;;;1.50;1.00;;;;;;5073589;28;20448;-75
2024/01/21 01:01:13;;;;;;;8.53;6.93;;;1.50;1.00;;;;;;5073575;28;20171;-77
2024/01/21 01:03:39;;;;;;;8.60;6.40;;;1.50;1.00;;;;;;5072596;28;20257;-77
2024/01/21 01:06:05;;;;;;;7.53;6.93;;;1.50;1.00;;;;;;5073431;28;20252;-75
2024/01/21 01:08:31;;;;;;;6.90;5.97;;;1.50;1.00;;;;;;5075258;28;20511;-77
2024/01/21 01:10:56;;;;;;;7.77;6.50;;;1.50;1.00;;;;;;5076719;28;20427;-77
2024/01/21 01:13:22;;;;;;;8.00;6.20;;;1.50;1.00;;;;;;5072538;28;20257;-77
2024/01/21 01:15:48;;;;;;;6.90;6.00;;;1.50;1.00;;;;;;5073228;28;20597;-75
2024/01/21 01:18:16;;;;;;;12.20;6.50;;;1.50;1.00;;;;;;5073211;28;20170;-75
2024/01/21 01:20:42;;;;;;;7.40;5.97;;;1.50;1.00;;;;;;5073363;28;20190;-77
2024/01/21 01:23:07;;;;;;;6.07;5.63;;;1.50;1.00;;;;;;5072344;28;20435;-75
2024/01/21 01:25:33;;;;;;;6.37;5.77;;;1.50;1.00;;;;;;5073196;28;20186;-77
2024/01/21 01:27:59;;;;;;;6.07;5.40;;;1.50;1.00;;;;;;5072132;28;20679;-76
2024/01/21 01:30:24;;;;;;;7.37;5.83;;;1.40;1.00;;;;;;5057303;28;20177;-75
2024/01/21 01:32:50;;;;;;;5.87;5.30;;;1.40;1.00;;;;;;5072321;28;20733;-75
2024/01/21 01:35:16;;;;;;;6.40;5.57;;;1.40;99.90;;;;;;5073106;28;20187;-75
2024/01/21 01:37:41;;;;;;;6.23;5.67;;;1.40;99.90;;;;;;5073133;28;20171;-76
2024/01/21 01:40:07;;;;;;;7.43;5.60;;;1.40;99.90;;;;;;5072971;28;20554;-77
2024/01/21 01:42:33;;;;;;;6.23;5.73;;;1.40;99.90;;;;;;5073076;28;20249;-77
2024/01/21 01:45:02;;;;;;;9.00;5.67;;;1.30;99.90;;;;;;5074972;28;20531;-74
2024/01/21 01:47:28;;;;;;;5.03;4.63;;;1.30;99.90;;;;;;5073870;28;20239;-77
2024/01/21 01:49:56;;;;;;;8.63;5.40;;;1.30;99.90;;;;;;5054954;28;20401;-78
2024/01/21 01:52:22;;;;;;;8.33;6.03;;;1.30;99.90;;;;;;5054984;28;20507;-75
2024/01/21 01:54:48;;;;;;;5.63;5.23;;;1.30;99.90;;;;;;5072033;28;20815;-77
2024/01/21 01:57:17;;;;;;;4.40;4.10;;;1.30;99.90;;;;;;5073039;28;20404;-76
2024/01/21 01:59:43;;;;;;;4.70;4.30;;;1.30;99.90;;;;;;5074096;28;21004;-77
2024/01/21 02:02:10;;;;;;;5.83;5.23;;;1.30;99.90;;;;;;5059129;28;20408;-75
2024/01/21 02:04:36;;;;;;;5.43;4.87;;;1.30;99.90;;;;;;5080866;28;20212;-75
2024/01/21 02:07:02;;;;;;;5.17;4.67;;;1.30;99.90;;;;;;5078629;28;20408;-75
2024/01/21 02:09:27;;;;;;;5.10;4.00;;;1.30;99.90;;;;;;5076776;28;20241;-77
2024/01/21 02:11:53;;;;;;;5.03;4.63;;;1.30;99.90;;;;;;5076692;28;20408;-74
2024/01/21 02:14:20;;;;;;;5.80;4.80;;;1.30;99.90;;;;;;5075598;28;20291;-75
2024/01/21 02:16:45;;;;;;;5.80;5.20;;;1.30;99.90;;;;;;5076614;28;20170;-75
2024/01/21 02:19:24;;;;;;;4.90;4.50;;;1.30;99.90;;;;;;5076586;28;20799;-75
2024/01/21 02:21:50;;;;;;;5.63;4.93;;;1.30;99.90;;;;;;5077504;28;20174;-75
2024/01/21 02:24:16;;;;;;;5.73;5.10;;;1.30;99.90;;;;;;5078162;28;20446;-77
2024/01/21 02:26:41;;;;;;;6.70;4.47;;;1.30;99.90;;;;;;5076421;28;20258;-75
2024/01/21 02:29:07;;;;;;;5.13;4.63;;;1.30;99.90;;;;;;5076445;28;20177;-74
2024/01/21 02:31:33;;;;;;;4.77;4.37;;;1.30;99.90;;;;;;5076390;28;20178;-77
2024/01/21 02:33:58;;;;;;;4.73;4.37;;;1.40;99.90;;;;;;5075324;28;20188;-77
2024/01/21 02:36:24;;;;;;;4.70;4.40;;;1.40;99.90;;;;;;5076151;28;20635;-74
2024/01/21 02:38:51;;;;;;;4.87;4.43;;;1.40;99.90;;;;;;5076233;28;20295;-77
2024/01/21 02:41:17;;;;;;;4.63;4.33;;;1.40;99.90;;;;;;5078357;28;20432;-75
2024/01/21 02:43:42;;;;;;;3.87;3.57;;;1.40;99.90;;;;;;5076126;28;20649;-75
2024/01/21 02:46:08;;;;;;;4.63;3.97;;;1.40;99.90;;;;;;5076128;28;20166;-74
2024/01/21 02:48:34;;;;;;;4.50;4.10;;;1.40;99.90;;;;;;5058225;28;20550;-77
2024/01/21 02:50:59;;;;;;;3.67;3.37;;;1.50;99.90;;;;;;5076013;28;20180;-74
2024/01/21 02:53:25;;;;;;;4.40;4.00;;;1.50;99.90;;;;;;5057093;28;20584;-74
2024/01/21 02:55:51;;;;;;;4.97;4.23;;;1.50;99.90;;;;;;5075939;28;20713;-76
2024/01/21 02:58:17;;;;;;;4.10;3.63;;;1.50;99.90;;;;;;5076635;28;20538;-75
2024/01/21 03:00:42;;;;;;;6.53;4.57;;;1.50;99.90;;;;;;5077516;28;20519;-75
2024/01/21 03:03:10;;;;;;;4.33;4.03;;;1.60;99.90;;;;;;5074887;28;20403;-75
2024/01/21 03:05:36;;;;;;;5.53;3.77;;;1.50;99.90;;;;;;5075699;28;20256;-75
2024/01/21 03:08:02;;;;;;;7.63;5.03;;;1.50;99.90;;;;;;5075685;28;20435;-75
2024/01/21 03:10:28;;;;;;;4.93;4.47;;;1.50;99.90;;;;;;5075333;28;20397;-77
2024/01/21 03:12:53;;;;;;;4.83;4.23;;;1.50;99.90;;;;;;5073947;28;20412;-75
2024/01/21 03:15:19;;;;;;;4.73;4.33;;;1.40;99.90;;;;;;5075622;28;20205;-77
2024/01/21 03:17:45;;;;;;;4.57;4.17;;;1.40;99.90;;;;;;5079921;28;20284;-75
2024/01/21 03:20:11;;;;;;;3.70;3.37;;;1.50;99.90;;;;;;5084055;28;20245;-75
2024/01/21 03:22:36;;;;;;;5.57;5.07;;;1.50;99.90;;;;;;5057460;28;20166;-75
2024/01/21 03:25:02;;;;;;;4.63;4.10;;;1.50;99.90;;;;;;5074401;28;20439;-75
2024/01/21 03:27:28;;;;;;;4.07;3.77;;;1.50;99.90;;;;;;5075384;28;20171;-77
2024/01/21 03:29:55;;;;;;;4.13;3.80;;;1.50;99.90;;;;;;5075303;28;20413;-76
2024/01/21 03:32:20;;;;;;;4.33;4.00;;;1.40;99.90;;;;;;5075184;28;20184;-74
2024/01/21 03:34:46;;;;;;;4.67;3.87;;;1.40;99.90;;;;;;5056213;28;20432;-75
2024/01/21 03:37:12;;;;;;;4.30;4.00;;;1.40;99.90;;;;;;5077784;28;20607;-76
2024/01/21 03:39:37;;;;;;;4.90;3.83;;;1.40;99.90;;;;;;5083379;28;20202;-77
2024/01/21 03:42:03;;;;;;;4.60;4.20;;;1.40;99.90;;;;;;5075078;28;20531;-77
2024/01/21 03:44:29;;;;;;;6.77;4.50;;;1.40;99.90;;;;;;5074110;28;20190;-77
2024/01/21 03:46:55;;;;;;;6.90;5.00;;;1.30;99.90;;;;;;5074841;28;20166;-74
2024/01/21 03:49:20;;;;;;;4.53;4.20;;;1.30;99.90;;;;;;5056942;28;20189;-76
2024/01/21 03:51:46;;;;;;;4.07;3.20;;;1.30;99.90;;;;;;5057177;28;20273;-76
2024/01/21 03:54:11;;;;;;;4.43;4.10;;;1.40;99.90;;;;;;5073944;28;20561;-77
2024/01/21 03:56:37;;;;;;;4.27;3.83;;;1.40;99.90;;;;;;5062844;28;20542;-76
2024/01/21 03:59:03;;;;;;;5.47;3.97;;;1.40;99.90;;;;;;5074561;28;20197;-74
2024/01/21 04:01:28;;;;;;;4.03;3.73;;;1.40;99.90;;;;;;5074667;28;20167;-77
2024/01/21 04:03:54;;;;;;;4.00;3.70;;;1.50;99.90;;;;;;5076494;28;20563;-74
2024/01/21 04:06:20;;;;;;;3.93;3.73;;;1.50;99.90;;;;;;5094018;28;20216;-75
2024/01/21 04:08:45;;;;;;;3.60;3.40;;;1.50;99.90;;;;;;5094542;28;20203;-74
2024/01/21 04:11:11;;;;;;;3.40;3.17;;;1.50;99.90;;;;;;5094599;28;20228;-75
2024/01/21 04:13:37;;;;;;;3.90;3.50;;;1.50;99.90;;;;;;5075623;28;20603;-77
2024/01/21 04:16:03;;;;;;;4.57;4.27;;;1.60;99.90;;;;;;5094534;28;20523;-77
2024/01/21 04:18:28;;;;;;;3.87;3.57;;;1.60;99.90;;;;;;5094582;28;20193;-75
2024/01/21 04:20:54;;;;;;;5.87;4.73;;;1.70;99.90;;;;;;5089115;28;20428;-75
2024/01/21 04:23:20;;;;;;;4.00;3.80;;;1.70;99.90;;;;;;5084282;28;20684;-75
2024/01/21 04:25:45;;;;;;;6.00;3.40;;;1.80;99.90;;;;;;5085742;28;20202;-76
2024/01/21 04:28:11;;;;;;;4.77;4.37;;;1.80;99.90;;;;;;5074179;28;20201;-76
2024/01/21 04:30:37;;;;;;;4.63;4.03;;;1.80;99.90;;;;;;5056449;28;20170;-75
2024/01/21 04:33:02;;;;;;;3.70;3.37;;;1.80;99.90;;;;;;5073119;28;20158;-74
2024/01/21 04:35:28;;;;;;;3.50;3.20;;;1.80;99.90;;;;;;5056166;28;20202;-75
2024/01/21 04:37:54;;;;;;;3.80;3.20;;;1.80;99.90;;;;;;5073963;28;20554;-77
2024/01/21 04:40:19;;;;;;;3.57;3.27;;;1.80;99.90;;;;;;5073862;28;20274;-74
2024/01/21 04:42:45;;;;;;;4.80;3.73;;;1.90;99.90;;;;;;5075965;28;20248;-76
2024/01/21 04:45:11;;;;;;;7.20;3.67;;;1.90;99.90;;;;;;5085352;28;20197;-74
2024/01/21 04:47:36;;;;;;;4.17;3.87;;;1.90;99.90;;;;;;5075682;28;20178;-77
2024/01/21 04:50:02;;;;;;;3.53;3.33;;;1.80;99.90;;;;;;5074183;28;20278;-74
2024/01/21 04:52:28;;;;;;;3.80;3.50;;;1.90;99.90;;;;;;5073526;28;20174;-75
2024/01/21 04:54:54;;;;;;;3.90;3.60;;;1.90;99.90;;;;;;5072536;28;20428;-74
2024/01/21 04:57:19;;;;;;;4.50;4.10;;;2.00;99.90;;;;;;5073386;28;20189;-76
2024/01/21 04:59:45;;;;;;;3.83;3.63;;;2.00;99.90;;;;;;5073245;28;20200;-75
2024/01/21 05:02:11;;;;;;;4.20;3.80;;;2.10;99.90;;;;;;5092398;28;20235;-77
2024/01/21 05:04:36;;;;;;;3.20;3.00;;;2.10;99.90;;;;;;5092554;28;20193;-74
2024/01/21 05:07:02;;;;;;;4.17;3.87;;;2.10;99.90;;;;;;5075641;28;20574;-77
2024/01/21 05:09:28;;;;;;;3.47;3.17;;;2.00;99.90;;;;;;5075534;28;20181;-77
2024/01/21 05:11:53;;;;;;;3.50;3.30;;;2.10;99.90;;;;;;5093370;28;20253;-74
2024/01/21 05:14:19;;;;;;;4.17;3.83;;;1.90;99.90;;;;;;5092490;28;20185;-76
2024/01/21 05:16:45;;;;;;;4.33;3.93;;;1.90;99.90;;;;;;5093417;28;20181;-76
2024/01/21 05:19:11;;;;;;;6.03;3.83;;;1.90;99.90;;;;;;5093344;28;20259;-76
2024/01/21 05:21:37;;;;;;;7.00;4.70;;;1.80;99.90;;;;;;5093349;28;20172;-75
2024/01/21 05:24:03;;;;;;;4.27;3.97;;;1.70;99.90;;;;;;5092306;28;20424;-76
2024/01/21 05:26:28;;;;;;;3.87;3.57;;;1.70;99.90;;;;;;5093313;28;20219;-74
2024/01/21 05:28:55;;;;;;;3.90;3.70;;;1.70;99.90;;;;;;5093240;28;20529;-75
2024/01/21 05:31:21;;;;;;;4.23;3.87;;;1.70;99.90;;;;;;5093356;28;20214;-75
2024/01/21 05:33:47;;;;;;;4.73;4.33;;;1.70;99.90;;;;;;5091839;28;20407;-75
2024/01/21 05:36:13;;;;;;;5.03;4.07;;;1.70;99.90;;;;;;5075198;28;20412;-75
2024/01/21 05:38:39;;;;;;;4.47;4.07;;;1.60;99.90;;;;;;5074410;28;20197;-76
2024/01/21 05:41:04;;;;;;;4.47;4.17;;;1.60;99.90;;;;;;5055069;28;20170;-78
2024/01/21 05:43:30;;;;;;;5.07;3.93;;;1.70;99.90;;;;;;5071994;28;20413;-76
2024/01/21 05:45:56;;;;;;;4.50;4.10;;;1.70;99.90;;;;;;5071969;28;20194;-76
2024/01/21 05:48:21;;;;;;;4.47;4.17;;;1.60;99.90;;;;;;5073133;28;20175;-77
2024/01/21 05:50:47;;;;;;;5.27;4.77;;;1.60;99.90;;;;;;5073148;28;20241;-75
2024/01/21 05:53:13;;;;;;;4.63;4.13;;;1.60;99.90;;;;;;5072186;28;20607;-76
2024/01/21 05:55:38;;;;;;;8.57;4.10;;;1.60;99.90;;;;;;5072974;28;20182;-76
2024/01/21 05:58:04;;;;;;;5.03;4.63;;;1.50;99.90;;;;;;5053508;28;20197;-76
2024/01/21 06:00:30;;;;;;;6.10;3.87;;;1.50;99.90;;;;;;5080701;28;20734;-75
2024/01/21 06:02:55;;;;;;;4.67;3.80;;;1.60;99.90;;;;;;5072276;28;20175;-74
2024/01/21 06:05:22;;;;;;;4.70;4.30;;;1.60;99.90;;;;;;5060382;28;20228;-76
2024/01/21 06:07:47;;;;;;;7.30;5.00;;;1.60;99.90;;;;;;5093034;28;20215;-75
2024/01/21 06:10:13;;;;;;;4.37;4.07;;;1.60;99.90;;;;;;5074784;28;20836;-75
2024/01/21 06:12:39;;;;;;;4.73;4.33;;;1.60;99.90;;;;;;5092988;28;20223;-74
2024/01/21 06:15:05;;;;;;;3.90;3.70;;;1.60;99.90;;;;;;5092229;28;20194;-74
2024/01/21 06:17:30;;;;;;;4.53;4.20;;;1.70;99.90;;;;;;5093128;28;20173;-76
2024/01/21 06:19:57;;;;;;;4.23;3.93;;;1.70;99.90;;;;;;5074715;28;20865;-74
2024/01/21 06:22:23;;;;;;;4.67;4.30;;;1.70;99.90;;;;;;5090164;28;20188;-76
2024/01/21 06:24:48;;;;;;;13.33;4.60;;;1.70;99.90;;;;;;5091051;28;20446;-76
2024/01/21 06:27:14;;;;;;;8.30;4.77;;;1.70;99.90;;;;;;5092898;28;20205;-74
2024/01/21 06:29:43;;;;;;;4.90;4.20;;;1.70;99.90;;;;;;5092924;28;20486;-76
2024/01/21 06:32:09;;;;;;;4.63;4.23;;;1.70;99.90;;;;;;5092730;28;20407;-76
2024/01/21 06:34:35;;;;;;;4.10;3.80;;;1.80;99.90;;;;;;5091868;28;20435;-76
2024/01/21 06:37:00;;;;;;;6.00;3.63;;;1.80;99.90;;;;;;5092924;28;20252;-76
2024/01/21 06:39:26;;;;;;;3.33;3.13;;;1.80;99.90;;;;;;5085696;28;20202;-74
2024/01/21 06:41:52;;;;;;;5.17;4.13;;;1.90;99.90;;;;;;5072568;28;20167;-76
2024/01/21 06:44:18;;;;;;;3.97;3.67;;;1.90;99.90;;;;;;5053562;28;20703;-74
2024/01/21 06:46:44;;;;;;;5.00;4.50;;;2.00;99.90;;;;;;5073682;28;20436;-78
2024/01/21 06:49:10;;;;;;;3.73;3.43;;;2.00;99.90;;;;;;5076030;28;20631;-71
2024/01/21 06:51:43;;;;;;;4.07;3.70;;;2.10;99.90;;;;;;5075912;28;20416;-78
2024/01/21 06:54:09;;;;;;;4.37;4.00;;;2.20;99.90;;;;;;5057011;28;20278;-73
2024/01/21 06:56:35;;;;;;;5.68;3.40;;;2.20;99.90;;;;;;5060442;28;20867;-74
2024/01/21 06:59:00;;;;;;;5.13;4.10;;;2.30;99.90;;;;;;5075788;28;20292;-74
2024/01/21 07:01:26;;;;;;;3.63;3.33;;;2.30;99.90;;;;;;5076092;28;20194;-75
2024/01/21 07:03:52;;;;;;;3.37;3.13;;;2.30;99.90;;;;;;5074888;28;20163;-74
2024/01/21 07:06:18;;;;;;;4.80;4.50;;;2.30;99.90;;;;;;5078274;28;20190;-76
2024/01/21 07:08:44;;;;;;;4.00;3.70;;;2.30;99.90;;;;;;5075711;28;20486;-74
2024/01/21 07:11:10;;;;;;;3.07;2.87;;;2.20;99.90;;;;;;5057687;28;20178;-76
2024/01/21 07:13:36;;;;;;;4.80;4.43;;;2.20;99.90;;;;;;5057046;28;20807;-76
2024/01/21 07:16:02;;;;;;;3.73;3.53;;;2.20;99.90;;;;;;5057470;28;20443;-77
2024/01/21 07:18:28;;;;;;;4.03;3.73;;;2.20;99.90;;;;;;5075711;28;20200;-76
2024/01/21 07:20:53;;;;;;;4.40;4.00;;;2.30;99.90;;;;;;5083874;28;20514;-77
2024/01/21 07:23:19;;;;;;;4.60;3.40;;;2.20;99.90;;;;;;5085831;28;20190;-77
2024/01/21 07:25:47;;;;;;;4.37;3.97;;;2.20;99.90;;;;;;5057601;28;20194;-77
2024/01/21 07:28:13;;;;;;;3.73;3.43;;;2.20;99.90;;;;;;5075359;28;20614;-77
2024/01/21 07:30:39;;;;;;;4.00;3.70;;;2.20;99.90;;;;;;5057560;28;20419;-77
2024/01/21 07:33:05;;;;;;;4.33;3.80;;;2.20;99.90;;;;;;5074344;28;20417;-77
2024/01/21 07:35:31;;;;;;;4.13;3.77;;;2.20;99.90;;;;;;5057210;28;20708;-76
2024/01/21 07:37:56;;;;;;;5.27;4.10;;;2.20;99.90;;;;;;5073151;28;20405;-76
2024/01/21 07:40:22;;;;;;;4.07;3.77;;;2.20;99.90;;;;;;5086986;28;20201;-74
2024/01/21 07:42:48;;;;;;;3.80;3.60;;;2.20;99.90;;;;;;5056728;28;20901;-76
2024/01/21 07:45:14;;;;;;;3.63;3.33;;;2.20;99.90;;;;;;5074361;28;20222;-77
2024/01/21 07:47:40;;;;;;;3.97;3.67;;;2.20;99.90;;;;;;5074720;28;20170;-76
2024/01/21 07:50:07;;;;;;;3.50;3.20;;;2.20;99.90;;;;;;5074696;28;20899;-76
2024/01/21 07:52:32;;;;;;;3.80;3.50;;;2.30;99.90;;;;;;5074662;28;20412;-75
2024/01/21 07:54:58;;;;;;;3.40;3.20;;;2.30;99.90;;;;;;5073293;28;20428;-74
2024/01/21 07:57:24;;;;;;;3.67;3.37;;;2.30;99.90;;;;;;5073552;28;20178;-74
2024/01/21 07:59:49;;;;;;;3.53;3.33;;;2.30;99.90;;;;;;5074347;28;20666;-76
2024/01/21 08:02:16;;;;;;;3.57;3.27;;;2.30;99.90;;;;;;5081287;28;20586;-74
2024/01/21 08:04:42;;;;;;;4.43;4.03;;;2.30;99.90;;;;;;5093647;28;20200;-74
2024/01/21 08:07:08;;;;;;;3.63;3.43;;;2.30;99.90;;;;;;5067946;28;20416;-77
2024/01/21 08:09:34;;;;;;;3.90;3.60;;;2.30;99.90;;;;;;5074442;28;20405;-74
2024/01/21 08:12:00;;;;;;;2.97;2.77;;;2.30;99.90;;;;;;5074206;28;20400;-77
2024/01/21 08:14:25;;;;;;;4.23;4.03;;;2.30;99.90;;;;;;5087578;28;20205;-77
2024/01/21 08:16:51;;;;;;;3.40;3.10;;;2.40;99.90;;;;;;5094392;28;20179;-73
2024/01/21 08:19:19;;;;;;;3.90;3.60;;;2.30;99.90;;;;;;5085875;28;20456;-77
2024/01/21 08:21:46;;;;;;;3.80;3.50;;;2.30;99.90;;;;;;5073986;28;20869;-77
2024/01/21 08:24:11;;;;;;;4.70;3.47;;;2.30;99.90;;;;;;5073163;28;20424;-77
2024/01/21 08:26:37;;;;;;;3.80;3.33;;;2.30;99.90;;;;;;5072767;28;20419;-75
2024/01/21 08:29:03;;;;;;;4.00;3.67;;;2.40;99.90;;;;;;5073912;28;20623;-75
2024/01/21 08:31:29;;;;;;;4.87;2.90;;;2.40;99.90;;;;;;5088756;28;20220;-77
2024/01/21 08:33:54;;;;;;;3.47;3.27;;;2.40;99.90;;;;;;5093044;28;20451;-77
2024/01/21 08:36:20;;;;;;;3.33;3.00;;;2.40;99.90;;;;;;5094144;28;20188;-77
2024/01/21 08:38:46;;;;;;;3.93;3.63;;;2.40;99.90;;;;;;5093987;28;20216;-76
2024/01/21 08:41:11;;;;;;;3.83;3.53;;;2.40;99.90;;;;;;5093912;28;20275;-77
2024/01/21 08:43:37;;;;;;;4.77;4.20;;;2.50;99.90;;;;;;5092965;28;20172;-76
2024/01/21 08:46:03;;;;;;;4.23;3.90;;;2.50;99.90;;;;;;5093809;28;20189;-77
2024/01/21 08:48:29;;;;;;;3.83;3.50;;;2.50;99.90;;;;;;5093776;28;20630;-73
2024/01/21 08:50:56;;;;;;;3.60;3.30;;;2.50;99.90;;;;;;5093670;28;20438;-77
2024/01/21 08:53:22;;;;;;;3.77;3.50;;;2.60;99.90;;;;;;5092783;28;20716;-77
2024/01/21 08:55:48;;;;;;;3.67;3.37;;;2.60;99.90;;;;;;5085302;28;20492;-77
2024/01/21 08:58:14;;;;;;;3.57;3.27;;;2.60;99.90;;;;;;5072388;28;20462;-77
2024/01/21 09:00:39;;;;;;;3.60;3.40;;;2.70;99.90;;;;;;5073467;28;20615;-75
2024/01/21 09:03:05;;;;;;;4.70;4.30;;;2.70;99.90;;;;;;5072510;28;20177;-77
2024/01/21 09:05:31;;;;;;;4.60;3.83;;;2.70;99.90;;;;;;5088465;28;20228;-77
2024/01/21 09:07:56;;;;;;;4.60;4.30;;;2.70;99.90;;;;;;5093489;28;20527;-77
2024/01/21 09:10:22;;;;;;;4.03;3.67;;;2.70;99.90;;;;;;5074666;28;20174;-77
2024/01/21 09:12:48;;;;;;;7.20;3.07;;;2.70;99.90;;;;;;5093187;28;20177;-75
2024/01/21 09:15:14;;;;;;;3.57;3.27;;;2.80;99.90;;;;;;5093160;28;20197;-74
2024/01/21 09:17:41;;;;;;;3.57;3.27;;;2.80;99.90;;;;;;5093267;28;20441;-75
2024/01/21 09:20:07;;;;;;;3.70;3.50;;;2.80;99.90;;;;;;5093327;28;20549;-73
2024/01/21 09:22:33;;;;;;;3.20;3.00;;;2.80;99.90;;;;;;5093270;28;20500;-73
2024/01/21 09:24:59;;;;;;;4.87;4.57;;;2.80;99.90;;;;;;5074350;28;20511;-78
2024/01/21 09:27:25;;;;;;;3.77;3.57;;;2.90;99.90;;;;;;5093278;28;20172;-76
2024/01/21 09:29:50;;;;;;;5.07;3.87;;;3.00;99.90;;;;;;5093093;28;20174;-74
2024/01/21 09:32:17;;;;;;;3.50;3.20;;;2.90;99.90;;;;;;5093241;28;20400;-77
2024/01/21 09:34:43;;;;;;;4.50;4.20;;;2.90;99.90;;;;;;5074120;28;20197;-76
2024/01/21 09:37:09;;;;;;;6.83;3.60;;;2.90;99.90;;;;;;5073106;28;20405;-77
2024/01/21 09:39:35;;;;;;;3.83;3.63;;;2.90;99.90;;;;;;5088632;28;20542;-72
2024/01/21 09:42:05;;;;;;;3.70;3.40;;;3.00;99.90;;;;;;5079290;28;20208;-77
2024/01/21 09:44:31;;;;;;;3.70;3.40;;;3.00;99.90;;;;;;5072215;28;20685;-77
2024/01/21 09:46:59;;;;;;;4.10;3.80;;;3.00;99.90;;;;;;5073144;28;20510;-77
2024/01/21 09:49:25;;;;;;;5.10;4.30;;;3.00;99.90;;;;;;5073047;28;20166;-74
2024/01/21 09:51:52;;;;;;;5.03;3.87;;;3.00;99.90;;;;;;5072995;28;20546;-74
2024/01/21 09:54:19;;;;;;;7.33;4.13;;;3.10;99.90;;;;;;5072162;28;20750;-77
2024/01/21 09:56:45;;;;;;;3.23;3.03;;;3.10;99.90;;;;;;5075474;28;20432;-74
2024/01/21 09:59:11;;;;;;;4.50;3.50;;;3.10;99.90;;;;;;5072940;28;20805;-73
2024/01/21 10:01:38;;;;;;;4.03;3.83;;;3.10;99.90;;;;;;5072946;28;20162;-73
2024/01/21 10:04:04;;;;;;;3.53;3.23;;;3.20;99.90;;;;;;5071873;28;20452;-73
2024/01/21 10:06:30;;;;;;;3.90;3.63;;;3.20;99.90;;;;;;5054202;28;20452;-73
2024/01/21 10:09:16;;;;;;;3.43;3.23;;;3.20;99.90;;;;;;5080380;28;20243;-78
2024/01/21 10:11:42;;;;;;;4.40;4.10;;;3.30;99.90;;;;;;5074145;28;20643;-76
2024/01/21 10:14:08;;;;;;;4.07;3.20;;;3.30;99.90;;;;;;5080185;28;20454;-73
2024/01/21 10:16:33;;;;;;;4.10;3.90;;;3.30;99.90;;;;;;5092661;28;20438;-77
2024/01/21 10:19:00;;;;;;;4.20;3.90;;;3.30;99.90;;;;;;5078296;28;20487;-74
2024/01/21 10:21:25;;;;;;;3.27;3.07;;;3.40;99.90;;;;;;5056987;28;20163;-77
2024/01/21 10:23:51;;;;;;;3.80;3.50;;;3.40;99.90;;;;;;5074946;28;20415;-76
2024/01/21 10:26:17;;;;;;;4.07;3.77;;;3.70;99.90;;;;;;5088703;28;20171;-73
2024/01/21 10:28:42;;;;;;;4.90;4.50;;;4.00;99.90;;;;;;5096547;28;20173;-77
2024/01/21 10:31:08;;;;;;;6.57;4.03;;;4.30;99.90;;;;;;5096310;28;20162;-77
2024/01/21 10:33:34;;;;;;;4.03;3.27;;;4.30;99.90;;;;;;5095576;28;20162;-79
2024/01/21 10:36:01;;;;;;;4.00;3.67;;;4.10;99.90;;;;;;5096264;28;20458;-75
2024/01/21 10:38:45;;;;;;;4.33;3.60;;;4.00;99.90;;;;;;5078381;28;20173;-77
2024/01/21 10:41:14;;;;;;;4.83;3.27;;;4.00;99.90;;;;;;5096310;28;20484;-73
2024/01/21 10:43:40;;;;;;;3.60;3.40;;;4.00;99.90;;;;;;5095087;28;20411;-75
2024/01/21 10:46:07;;;;;;;3.80;3.50;;;4.00;99.90;;;;;;5095321;28;20510;-77
2024/01/21 10:48:34;;;;;;;3.70;3.50;;;4.00;99.90;;;;;;5096125;28;20397;-73
2024/01/21 10:51:01;;;;;;;5.47;3.70;;;4.10;99.90;;;;;;5095854;28;20428;-76
2024/01/21 10:53:28;;;;;;;3.80;3.50;;;4.20;99.90;;;;;;5076723;28;20399;-74
2024/01/21 10:55:54;;;;;;;3.30;3.10;;;4.20;99.90;;;;;;5095926;28;20465;-76
2024/01/21 10:58:20;;;;;;;4.13;3.83;;;4.20;99.90;;;;;;5095825;28;20408;-72
2024/01/21 11:00:46;;;;;;;4.37;3.97;;;4.20;99.90;;;;;;5095778;28;20454;-76
2024/01/21 11:03:31;;;;;;;4.00;3.70;;;4.20;99.90;;;;;;5094950;28;20396;-74
2024/01/21 11:06:05;;;;;;;4.17;3.77;;;4.10;99.90;;;;;;5095578;28;20439;-76
2024/01/21 11:08:31;;;;;;;4.70;3.50;;;4.10;99.90;;;;;;5057348;28;20470;-72
2024/01/21 11:11:13;;;;;;;4.80;4.40;;;4.10;99.90;;;;;;5057448;28;20809;-76
2024/01/21 11:13:42;;;;;;;4.53;4.17;;;3.90;99.90;;;;;;5079359;28;20521;-77
2024/01/21 11:16:33;;;;;;;7.63;4.57;;;3.90;99.90;;;;;;5075455;28;20404;-77
2024/01/21 11:19:09;;;;;;;4.20;2.80;;;3.80;99.90;;;;;;5075324;28;20448;-77
2024/01/21 11:21:40;;;;;;;3.87;3.57;;;3.80;99.90;;;;;;5075534;28;20400;-77
2024/01/21 11:24:14;;;;;;;5.00;4.43;;;3.80;99.90;;;;;;5074497;28;20412;-76
2024/01/21 11:26:42;;;;;;;4.80;4.30;;;3.70;99.90;;;;;;5075347;28;20390;-73
2024/01/21 11:29:31;;;;;;;4.00;3.60;;;3.70;99.90;;;;;;5076166;28;20429;-74
2024/01/21 11:32:01;;;;;;;4.63;4.33;;;3.70;99.90;;;;;;5074503;28;20394;-75
2024/01/21 11:34:36;;;;;;;4.50;3.73;;;3.70;99.90;;;;;;5074248;28;20405;-76
2024/01/21 11:37:02;;;;;;;5.07;4.67;;;3.70;99.90;;;;;;5075236;28;20395;-76
2024/01/21 11:39:27;;;;;;;3.77;3.47;;;3.70;99.90;;;;;;5057349;28;20845;-76
2024/01/21 11:41:53;;;;;;;3.90;3.50;;;3.70;99.90;;;;;;5075102;28;20397;-75
2024/01/21 11:44:22;;;;;;;4.23;3.83;;;3.70;99.90;;;;;;5074128;28;20187;-76
2024/01/21 11:46:48;;;;;;;3.90;3.60;;;3.80;99.90;;;;;;5077550;28;20427;-75
2024/01/21 11:49:14;;;;;;;4.90;4.50;;;3.80;99.90;;;;;;5079753;28;20900;-77
2024/01/21 11:51:40;;;;;;;5.13;4.30;;;3.70;99.90;;;;;;5074777;28;20400;-74
2024/01/21 11:54:07;;;;;;;6.30;4.17;;;3.80;99.90;;;;;;5055957;28;20440;-76
2024/01/21 11:56:35;;;;;;;3.83;3.33;;;3.80;99.90;;;;;;5056607;28;20750;-76
2024/01/21 11:59:01;;;;;;;3.93;3.67;;;3.90;99.90;;;;;;5073566;28;20445;-76
2024/01/21 12:01:27;;;;;;;3.90;3.70;;;3.90;99.90;;;;;;5056739;28;20492;-76
2024/01/21 12:03:55;;;;;;;5.23;4.27;;;3.90;99.90;;;;;;5073729;28;20406;-75
2024/01/21 12:06:22;;;;;;;4.40;3.93;;;3.90;99.90;;;;;;5067018;28;20973;-77
2024/01/21 12:08:48;;;;;;;5.50;5.00;;;4.00;99.90;;;;;;5074326;28;20913;-75
2024/01/21 12:11:18;;;;;;;4.50;4.20;;;4.10;99.90;;;;;;5074431;28;20423;-76
2024/01/21 12:13:43;;;;;;;5.57;5.07;;;4.10;99.90;;;;;;5073517;28;20409;-75
2024/01/21 12:16:10;;;;;;;4.20;3.80;;;4.20;99.90;;;;;;5073364;28;20427;-74
2024/01/21 12:18:40;;;;;;;4.43;4.13;;;4.20;99.90;;;;;;5074267;28;20167;-75
2024/01/21 12:21:06;;;;;;;5.43;4.50;;;4.20;99.90;;;;;;5074273;28;20415;-74
2024/01/21 12:23:32;;;;;;;5.00;4.63;;;4.20;99.90;;;;;;5075751;28;21000;-75
2024/01/21 12:25:59;;;;;;;3.93;3.53;;;4.20;99.90;;;;;;5074207;28;20449;-74
2024/01/21 12:28:24;;;;;;;4.40;4.10;;;4.30;99.90;;;;;;5056528;28;20167;-75
2024/01/21 12:30:50;;;;;;;5.30;3.80;;;4.30;99.90;;;;;;5074077;28;20402;-74
2024/01/21 12:33:16;;;;;;;4.90;4.40;;;4.30;99.90;;;;;;5073115;28;20619;-77
2024/01/21 12:35:43;;;;;;;3.80;3.50;;;4.30;99.90;;;;;;5073874;28;20272;-75
2024/01/21 12:38:09;;;;;;;5.67;4.83;;;4.30;99.90;;;;;;5073971;28;20242;-73
2024/01/21 12:40:35;;;;;;;3.63;3.33;;;4.30;99.90;;;;;;5076161;28;20469;-77
2024/01/21 12:43:00;;;;;;;5.30;4.80;;;4.20;99.90;;;;;;5078867;28;20412;-77
2024/01/21 12:45:26;;;;;;;5.00;4.10;;;4.20;99.90;;;;;;5073890;28;20635;-73
2024/01/21 12:47:52;;;;;;;6.80;5.50;;;4.20;99.90;;;;;;5073769;28;20174;-77
2024/01/21 12:50:18;;;;;;;5.97;4.93;;;4.20;99.90;;;;;;5072809;28;20183;-74
2024/01/21 12:52:44;;;;;;;4.73;4.30;;;4.20;99.90;;;;;;5055587;28;20444;-73